createdAt,value
2018-06-09T00:00:15.383Z,20.76
2018-06-09T00:02:44.834Z,20.78
2018-06-09T00:05:14.152Z,20.79
2018-06-09T00:07:43.413Z,20.76
2018-06-09T00:10:12.781Z,20.75
2018-06-09T00:12:42.275Z,20.71
2018-06-09T00:15:11.521Z,20.66
2018-06-09T00:17:40.764Z,20.71
2018-06-09T00:20:10.090Z,20.67
2018-06-09T00:22:39.393Z,20.53
2018-06-09T00:25:08.674Z,20.54
2018-06-09T00:27:37.995Z,20.48
2018-06-09T00:30:07.296Z,20.44
2018-06-09T00:32:36.638Z,20.38
2018-06-09T00:35:06.135Z,20.46
2018-06-09T00:37:35.649Z,20.39
2018-06-09T00:40:05.031Z,20.34
2018-06-09T00:42:34.451Z,20.33
2018-06-09T00:45:03.783Z,20.36
2018-06-09T00:47:33.129Z,20.22
2018-06-09T00:50:02.443Z,20.24
2018-06-09T00:52:31.921Z,20.21
2018-06-09T00:55:01.443Z,20.17
2018-06-09T00:57:30.719Z,20.21
2018-06-09T01:00:00.015Z,20.25
2018-06-09T01:02:29.304Z,20.18
2018-06-09T01:04:58.531Z,20.09
2018-06-09T01:07:27.939Z,20.16
2018-06-09T01:09:57.216Z,20.16
2018-06-09T01:12:26.516Z,20.03
2018-06-09T01:14:55.841Z,19.97
2018-06-09T01:17:25.275Z,19.91
2018-06-09T01:19:54.553Z,20.01
2018-06-09T01:22:23.893Z,19.88
2018-06-09T01:24:53.213Z,20.03
2018-06-09T01:27:22.510Z,19.88
2018-06-09T01:29:51.835Z,19.79
2018-06-09T01:32:22.219Z,19.75
2018-06-09T01:34:51.526Z,19.71
2018-06-09T01:37:20.755Z,19.69
2018-06-09T01:39:50.032Z,19.74
2018-06-09T01:42:19.281Z,19.64
2018-06-09T01:44:48.623Z,19.65
2018-06-09T01:47:17.877Z,19.61
2018-06-09T01:49:47.160Z,19.49
2018-06-09T01:52:16.413Z,19.78
2018-06-09T01:54:45.711Z,19.67
2018-06-09T01:57:15.003Z,19.67
2018-06-09T01:59:44.274Z,19.71
2018-06-09T02:02:13.684Z,19.76
2018-06-09T02:04:43.009Z,19.67
2018-06-09T02:07:12.397Z,19.72
2018-06-09T02:09:41.817Z,19.68
2018-06-09T02:12:11.054Z,19.87
2018-06-09T02:14:40.442Z,19.75
2018-06-09T02:17:09.515Z,19.68
2018-06-09T02:19:38.871Z,19.70
2018-06-09T02:22:08.286Z,19.64
2018-06-09T02:24:37.324Z,19.66
2018-06-09T02:27:06.600Z,19.65
2018-06-09T02:29:35.881Z,19.63
2018-06-09T02:32:05.426Z,19.55
2018-06-09T02:34:34.866Z,19.48
2018-06-09T02:37:04.279Z,19.37
2018-06-09T02:39:33.663Z,19.33
2018-06-09T02:42:02.973Z,19.34
2018-06-09T02:44:32.299Z,19.23
2018-06-09T02:47:01.610Z,19.21
2018-06-09T02:49:30.961Z,19.18
2018-06-09T02:52:00.297Z,19.10
2018-06-09T02:54:29.876Z,19.07
2018-06-09T02:56:58.915Z,18.97
2018-06-09T02:59:28.198Z,18.99
2018-06-09T03:01:57.496Z,18.95
2018-06-09T03:04:26.761Z,18.95
2018-06-09T03:06:56.018Z,18.91
2018-06-09T03:09:25.488Z,19.02
2018-06-09T03:11:54.841Z,18.93
2018-06-09T03:14:24.133Z,18.86
2018-06-09T03:16:53.485Z,18.83
2018-06-09T03:19:22.932Z,18.85
2018-06-09T03:21:52.227Z,18.92
2018-06-09T03:24:21.633Z,18.87
2018-06-09T03:26:51.191Z,18.84
2018-06-09T03:29:20.517Z,18.79
2018-06-09T03:31:49.853Z,18.79
2018-06-09T03:34:19.942Z,18.86
2018-06-09T03:36:49.260Z,18.85
2018-06-09T03:39:18.558Z,18.74
2018-06-09T03:41:47.890Z,18.72
2018-06-09T03:44:17.153Z,18.71
2018-06-09T03:46:46.417Z,18.84
2018-06-09T03:49:15.690Z,18.83
2018-06-09T03:51:44.995Z,18.83
2018-06-09T03:54:14.359Z,18.95
2018-06-09T03:56:43.672Z,19.00
2018-06-09T03:59:12.769Z,19.03
2018-06-09T04:01:42.022Z,19.18
2018-06-09T04:04:11.297Z,19.12
2018-06-09T04:06:40.627Z,19.18
2018-06-09T04:09:09.888Z,19.27
2018-06-09T04:11:39.241Z,19.33
2018-06-09T04:14:08.499Z,19.35
2018-06-09T04:16:37.784Z,19.38
2018-06-09T04:19:07.105Z,19.50
2018-06-09T04:21:36.500Z,19.80
2018-06-09T04:24:05.858Z,19.84
2018-06-09T04:26:35.344Z,20.12
2018-06-09T04:29:04.681Z,20.19
2018-06-09T04:31:34.095Z,20.12
2018-06-09T04:34:03.567Z,20.11
2018-06-09T04:36:33.172Z,20.16
2018-06-09T04:39:02.683Z,20.16
2018-06-09T04:41:32.083Z,20.15
2018-06-09T04:44:01.480Z,20.13
2018-06-09T04:46:30.779Z,20.11
2018-06-09T04:49:00.645Z,20.20
2018-06-09T04:51:30.035Z,20.18
2018-06-09T04:53:59.300Z,20.10
2018-06-09T04:56:28.579Z,20.11
2018-06-09T04:58:57.902Z,20.23
2018-06-09T05:01:27.389Z,20.28
2018-06-09T05:03:56.907Z,20.51
2018-06-09T05:06:26.223Z,20.65
2018-06-09T05:08:55.633Z,20.77
2018-06-09T05:11:24.948Z,20.83
2018-06-09T05:13:54.273Z,20.83
2018-06-09T05:16:23.553Z,20.88
2018-06-09T05:18:52.959Z,20.99
2018-06-09T05:21:22.222Z,21.10
2018-06-09T05:23:51.520Z,21.28
2018-06-09T05:26:20.855Z,21.35
2018-06-09T05:28:50.117Z,21.46
2018-06-09T05:31:19.462Z,21.56
2018-06-09T05:33:48.710Z,21.60
2018-06-09T05:36:18.097Z,21.72
2018-06-09T05:38:47.498Z,21.85
2018-06-09T05:41:16.766Z,21.96
2018-06-09T05:43:46.106Z,22.18
2018-06-09T05:46:15.459Z,22.16
2018-06-09T05:48:44.872Z,22.12
2018-06-09T05:51:14.186Z,22.05
2018-06-09T05:53:43.499Z,22.01
2018-06-09T05:56:13.738Z,22.18
2018-06-09T05:58:43.147Z,22.15
2018-06-09T06:01:12.532Z,22.30
2018-06-09T06:03:41.989Z,22.09
2018-06-09T06:06:11.073Z,22.27
2018-06-09T06:08:40.409Z,22.58
2018-06-09T06:11:09.490Z,22.78
2018-06-09T06:13:38.942Z,22.92
2018-06-09T06:16:08.182Z,23.48
2018-06-09T06:18:37.460Z,23.86
2018-06-09T06:21:06.987Z,24.08
2018-06-09T06:23:36.299Z,24.15
2018-06-09T06:26:05.715Z,24.27
2018-06-09T06:28:35.080Z,24.28
2018-06-09T06:31:04.479Z,24.24
2018-06-09T06:33:33.778Z,24.10
2018-06-09T06:36:03.211Z,24.11
2018-06-09T06:38:32.714Z,23.87
2018-06-09T06:41:02.456Z,23.73
2018-06-09T06:43:31.842Z,23.78
2018-06-09T06:46:01.361Z,23.83
2018-06-09T06:48:34.666Z,23.84
2018-06-09T06:51:04.067Z,23.75
2018-06-09T06:53:33.590Z,23.68
2018-06-09T06:56:03.063Z,23.69
2018-06-09T06:58:32.476Z,23.53
2018-06-09T07:01:01.881Z,23.61
2018-06-09T07:03:31.285Z,23.54
2018-06-09T07:06:02.435Z,23.67
2018-06-09T07:08:31.906Z,23.73
2018-06-09T07:11:01.268Z,23.85
2018-06-09T07:13:30.782Z,24.20
2018-06-09T07:16:00.096Z,24.52
2018-06-09T07:18:29.497Z,24.75
2018-06-09T07:20:58.559Z,25.03
2018-06-09T07:23:28.008Z,25.04
2018-06-09T07:25:57.272Z,25.51
2018-06-09T07:28:26.666Z,25.58
2018-06-09T07:30:55.927Z,25.37
2018-06-09T07:33:25.217Z,25.61
2018-06-09T07:35:54.499Z,25.64
2018-06-09T07:38:23.911Z,25.70
2018-06-09T07:40:53.192Z,25.75
2018-06-09T07:43:22.492Z,25.85
2018-06-09T07:45:51.789Z,25.74
2018-06-09T07:48:21.135Z,26.08
2018-06-09T07:50:50.460Z,25.88
2018-06-09T07:53:19.805Z,25.66
2018-06-09T07:55:48.801Z,25.31
2018-06-09T07:58:18.063Z,25.39
2018-06-09T08:00:47.445Z,25.41
2018-06-09T08:03:16.558Z,25.36
2018-06-09T08:05:45.865Z,25.31
2018-06-09T08:08:14.983Z,25.52
2018-06-09T08:10:44.376Z,25.77
2018-06-09T08:13:13.715Z,26.44
2018-06-09T08:15:43.098Z,26.71
2018-06-09T08:18:12.500Z,26.90
2018-06-09T08:20:41.788Z,26.55
2018-06-09T08:23:12.476Z,26.60
2018-06-09T08:25:44.386Z,26.80
2018-06-09T08:28:13.656Z,26.64
2018-06-09T08:30:43.865Z,26.17
2018-06-09T08:33:13.253Z,26.13
2018-06-09T08:35:47.315Z,26.04
2018-06-09T08:38:16.678Z,25.82
2018-06-09T08:40:46.001Z,25.76
2018-06-09T08:43:15.336Z,25.70
2018-06-09T08:45:44.615Z,26.00
2018-06-09T08:48:13.919Z,26.01
2018-06-09T08:50:43.059Z,26.07
2018-06-09T08:53:22.685Z,26.14
2018-06-09T08:55:52.173Z,26.17
2018-06-09T08:58:21.461Z,26.61
2018-06-09T09:00:50.894Z,26.66
2018-06-09T09:03:20.229Z,27.01
2018-06-09T09:05:49.579Z,27.41
2018-06-09T09:08:18.699Z,27.55
2018-06-09T09:10:47.813Z,27.75
2018-06-09T09:13:17.122Z,27.99
2018-06-09T09:15:46.437Z,27.85
2018-06-09T09:18:15.754Z,27.63
2018-06-09T09:20:45.025Z,27.60
2018-06-09T09:23:14.415Z,27.86
2018-06-09T09:25:43.669Z,27.98
2018-06-09T09:28:12.975Z,28.14
2018-06-09T09:30:42.389Z,28.01
2018-06-09T09:33:12.114Z,27.84
2018-06-09T09:35:41.440Z,28.01
2018-06-09T09:38:10.781Z,28.85
2018-06-09T09:40:40.036Z,29.03
2018-06-09T09:43:09.524Z,28.88
2018-06-09T09:45:38.859Z,28.65
2018-06-09T09:48:08.102Z,28.71
2018-06-09T09:50:37.497Z,28.90
2018-06-09T09:53:06.871Z,29.19
2018-06-09T09:55:36.186Z,29.07
2018-06-09T09:58:07.409Z,28.90
2018-06-09T10:00:41.596Z,28.77
2018-06-09T10:03:15.512Z,28.92
2018-06-09T10:05:46.813Z,29.20
2018-06-09T10:08:17.647Z,29.32
2018-06-09T10:10:47.576Z,29.41
2018-06-09T10:13:16.958Z,30.16
2018-06-09T10:15:46.266Z,30.16
2018-06-09T10:18:15.606Z,30.21
2018-06-09T10:20:44.880Z,30.62
2018-06-09T10:23:14.986Z,30.80
2018-06-09T10:25:44.285Z,30.64
2018-06-09T10:28:13.620Z,30.98
2018-06-09T10:30:44.224Z,31.04
2018-06-09T10:33:13.512Z,30.73
2018-06-09T10:35:43.065Z,30.89
2018-06-09T10:38:12.364Z,31.28
2018-06-09T10:40:41.667Z,31.75
2018-06-09T10:43:10.974Z,31.58
2018-06-09T10:45:40.364Z,31.13
2018-06-09T10:48:09.709Z,31.33
2018-06-09T10:50:39.063Z,31.52
2018-06-09T10:53:28.515Z,31.62
2018-06-09T10:55:58.557Z,31.22
2018-06-09T10:58:27.807Z,31.51
2018-06-09T11:00:57.158Z,31.70
2018-06-09T11:03:26.460Z,31.54
2018-06-09T11:05:55.749Z,31.49
2018-06-09T11:08:25.129Z,31.45
2018-06-09T11:10:54.502Z,31.72
2018-06-09T11:13:23.833Z,31.85
2018-06-09T11:15:52.898Z,31.79
2018-06-09T11:18:22.633Z,31.83
2018-06-09T11:20:51.864Z,31.58
2018-06-09T11:23:21.243Z,32.19
2018-06-09T11:25:50.669Z,32.44
2018-06-09T11:28:20.009Z,32.23
2018-06-09T11:30:49.263Z,32.05
2018-06-09T11:33:18.661Z,32.26
2018-06-09T11:35:48.025Z,32.03
2018-06-09T11:38:17.449Z,31.84
2018-06-09T11:40:46.810Z,31.60
2018-06-09T11:43:16.201Z,31.84
2018-06-09T11:45:45.472Z,31.85
2018-06-09T11:54:30.727Z,32.02
2018-06-09T11:57:00.860Z,31.78
2018-06-09T11:59:30.269Z,31.94
2018-06-09T12:01:59.716Z,32.10
2018-06-09T12:04:29.110Z,32.24
2018-06-09T12:06:58.623Z,32.32
2018-06-09T12:09:28.136Z,32.47
2018-06-09T12:11:57.465Z,32.78
2018-06-09T12:14:26.955Z,32.85
2018-06-09T12:16:56.902Z,32.46
2018-06-09T12:19:26.229Z,32.24
2018-06-09T12:21:55.733Z,32.07
2018-06-09T12:24:25.823Z,32.19
2018-06-09T12:26:55.384Z,32.36
2018-06-09T12:29:24.987Z,32.26
2018-06-09T12:31:54.281Z,32.24
2018-06-09T12:34:23.567Z,32.06
2018-06-09T12:36:52.946Z,32.46
2018-06-09T12:39:22.388Z,32.50
2018-06-09T12:41:51.669Z,32.53
2018-06-09T12:44:20.790Z,32.59
2018-06-09T12:46:50.065Z,32.51
2018-06-09T12:49:19.419Z,32.50
2018-06-09T12:51:48.435Z,32.26
2018-06-09T12:54:17.946Z,32.12
2018-06-09T12:56:47.385Z,31.86
2018-06-09T12:59:16.639Z,32.18
2018-06-09T13:01:46.180Z,32.30
2018-06-09T13:04:15.408Z,32.33
2018-06-09T13:06:44.550Z,32.31
2018-06-09T13:09:13.938Z,32.03
2018-06-09T13:11:43.354Z,32.24
2018-06-09T13:14:12.606Z,32.43
2018-06-09T13:16:45.342Z,32.45
2018-06-09T13:19:15.210Z,32.44
2018-06-09T13:21:44.752Z,32.46
2018-06-09T13:24:14.090Z,32.48
2018-06-09T13:27:05.209Z,32.34
2018-06-09T13:29:35.338Z,32.35
2018-06-09T13:32:07.531Z,32.37
2018-06-09T13:34:41.526Z,32.07
2018-06-09T13:37:15.236Z,32.02
2018-06-09T13:39:45.988Z,32.31
2018-06-09T13:42:17.684Z,32.35
2018-06-09T13:44:49.117Z,32.23
2018-06-09T13:47:21.311Z,32.44
2018-06-09T13:49:50.575Z,32.66
2018-06-09T13:52:20.052Z,32.72
2018-06-09T13:54:50.977Z,32.76
2018-06-09T13:57:22.001Z,32.69
2018-06-09T13:59:51.438Z,32.74
2018-06-09T14:02:20.855Z,32.19
2018-06-09T14:04:51.589Z,32.36
2018-06-09T14:07:21.255Z,32.17
2018-06-09T14:14:31.220Z,32.23
2018-06-09T14:17:00.729Z,32.38
2018-06-09T14:19:29.774Z,32.32
2018-06-09T14:21:59.242Z,32.20
2018-06-09T14:24:28.583Z,32.02
2018-06-09T14:26:58.217Z,32.30
2018-06-09T14:29:27.550Z,32.40
2018-06-09T14:31:56.830Z,32.09
2018-06-09T14:34:26.159Z,32.08
2018-06-09T14:36:55.476Z,31.94
2018-06-09T14:39:24.825Z,31.90
2018-06-09T14:41:54.172Z,31.63
2018-06-09T14:44:23.491Z,31.63
2018-06-09T14:46:52.910Z,31.77
2018-06-09T14:49:22.190Z,31.62
2018-06-09T14:51:51.562Z,31.44
2018-06-09T14:54:20.856Z,31.20
2018-06-09T14:56:50.263Z,31.11
2018-06-09T14:59:19.538Z,31.01
2018-06-09T15:01:48.856Z,31.15
2018-06-09T15:04:18.153Z,30.99
2018-06-09T15:06:47.434Z,30.83
2018-06-09T15:09:16.775Z,30.95
2018-06-09T15:11:46.069Z,31.00
2018-06-09T15:14:15.414Z,30.84
2018-06-09T15:16:44.748Z,30.98
2018-06-09T15:19:14.103Z,30.82
2018-06-09T15:21:43.607Z,30.79
2018-06-09T15:24:19.512Z,30.63
2018-06-09T15:26:48.975Z,30.46
2018-06-09T15:29:18.336Z,30.44
2018-06-09T15:31:48.516Z,30.31
2018-06-09T15:34:21.828Z,30.17
2018-06-09T15:36:51.553Z,29.85
2018-06-09T15:39:21.625Z,30.06
2018-06-09T15:41:56.612Z,29.73
2018-06-09T15:44:26.404Z,29.87
2018-06-09T15:46:55.889Z,29.41
2018-06-09T15:49:25.182Z,29.50
2018-06-09T15:52:00.336Z,29.58
2018-06-09T15:54:31.517Z,29.30
2018-06-09T15:57:01.642Z,29.18
2018-06-09T15:59:32.754Z,29.36
2018-06-09T16:02:02.181Z,29.28
2018-06-09T16:04:31.930Z,29.22
2018-06-09T16:07:01.386Z,29.07
2018-06-09T16:09:30.866Z,29.13
2018-06-09T16:12:00.143Z,29.09
2018-06-09T16:14:29.491Z,29.02
2018-06-09T16:16:58.815Z,29.08
2018-06-09T16:19:28.217Z,29.00
2018-06-09T16:21:57.551Z,29.07
2018-06-09T16:24:27.026Z,28.90
2018-06-09T16:26:56.415Z,28.75
2018-06-09T16:29:25.771Z,28.63
2018-06-09T16:31:55.117Z,28.64
2018-06-09T16:34:25.017Z,28.50
2018-06-09T16:36:55.127Z,28.43
2018-06-09T16:39:25.189Z,28.35
2018-06-09T16:41:54.531Z,28.33
2018-06-09T16:44:24.024Z,28.30
2018-06-09T16:46:58.165Z,28.18
2018-06-09T16:49:27.829Z,27.94
2018-06-09T16:51:58.041Z,28.07
2018-06-09T16:54:27.590Z,28.08
2018-06-09T16:57:04.186Z,28.04
2018-06-09T16:59:34.659Z,28.09
2018-06-09T17:02:05.632Z,28.01
2018-06-09T17:04:35.609Z,27.97
2018-06-09T17:07:05.013Z,27.93
2018-06-09T17:09:35.263Z,27.83
2018-06-09T17:12:04.658Z,27.76
2018-06-09T17:14:34.235Z,27.72
2018-06-09T17:17:08.994Z,27.65
2018-06-09T17:19:38.596Z,27.69
2018-06-09T17:22:07.945Z,27.65
2018-06-09T17:24:37.332Z,27.38
2018-06-09T17:27:06.612Z,27.35
2018-06-09T17:29:36.010Z,27.35
2018-06-09T17:32:05.387Z,27.30
2018-06-09T17:34:34.764Z,27.28
2018-06-09T17:37:04.169Z,27.20
2018-06-09T17:39:33.593Z,27.16
2018-06-09T17:42:03.053Z,27.12
2018-06-09T17:44:32.392Z,27.06
2018-06-09T17:47:02.702Z,26.97
2018-06-09T17:49:32.505Z,26.99
2018-06-09T17:52:02.145Z,27.01
2018-06-09T17:54:31.473Z,27.01
2018-06-09T17:57:00.793Z,26.95
2018-06-09T17:59:30.188Z,26.89
2018-06-09T18:01:59.613Z,26.77
2018-06-09T18:04:28.879Z,26.74
2018-06-09T18:06:58.294Z,26.77
2018-06-09T18:09:27.697Z,26.73
2018-06-09T18:11:57.066Z,26.74
2018-06-09T18:14:26.323Z,26.63
2018-06-09T18:16:55.662Z,26.58
2018-06-09T18:19:24.980Z,26.47
2018-06-09T18:21:54.391Z,26.48
2018-06-09T18:24:23.845Z,26.45
2018-06-09T18:26:53.388Z,26.46
2018-06-09T18:29:23.782Z,26.47
2018-06-09T18:31:54.844Z,26.39
2018-06-09T18:34:24.099Z,26.33
2018-06-09T18:36:53.384Z,26.25
2018-06-09T18:39:22.630Z,26.26
2018-06-09T18:41:51.911Z,26.22
2018-06-09T18:44:22.014Z,26.18
2018-06-09T18:46:51.049Z,26.18
2018-06-09T18:49:20.316Z,26.20
2018-06-09T18:51:50.755Z,26.13
2018-06-09T18:54:20.167Z,26.06
2018-06-09T18:56:49.445Z,26.02
2018-06-09T18:59:18.815Z,25.97
2018-06-09T19:01:48.106Z,25.97
2018-06-09T19:04:17.359Z,25.92
2018-06-09T19:06:46.782Z,25.91
2018-06-09T19:09:15.773Z,25.86
2018-06-09T19:11:45.112Z,25.84
2018-06-09T19:14:14.392Z,25.76
2018-06-09T19:16:43.655Z,25.71
2018-06-09T19:19:12.955Z,25.71
2018-06-09T19:21:42.287Z,25.66
2018-06-09T19:24:11.591Z,25.66
2018-06-09T19:26:41.114Z,25.61
2018-06-09T19:29:11.374Z,25.56
2018-06-09T19:31:41.896Z,25.58
2018-06-09T19:34:11.188Z,25.51
2018-06-09T19:36:40.466Z,25.50
2018-06-09T19:39:09.880Z,25.50
2018-06-09T19:41:39.493Z,25.42
2018-06-09T19:44:08.857Z,25.38
2018-06-09T19:46:38.448Z,25.34
2018-06-09T19:49:10.827Z,25.32
2018-06-09T19:51:40.202Z,25.28
2018-06-09T19:54:12.431Z,25.21
2018-06-09T19:56:41.901Z,25.15
2018-06-09T19:59:11.173Z,25.07
2018-06-09T20:01:40.450Z,25.04
2018-06-09T20:04:09.746Z,24.97
2018-06-09T20:06:39.143Z,24.95
2018-06-09T20:09:09.179Z,24.89
2018-06-09T20:11:38.415Z,24.84
2018-06-09T20:14:07.814Z,24.82
2018-06-09T20:16:37.136Z,24.77
2018-06-09T20:19:06.546Z,24.73
2018-06-09T20:21:35.919Z,24.72
2018-06-09T20:24:05.379Z,24.67
2018-06-09T20:26:44.922Z,24.65
2018-06-09T20:29:14.146Z,24.65
2018-06-09T20:31:43.800Z,24.64
2018-06-09T20:34:13.059Z,24.61
2018-06-09T20:36:42.401Z,24.58
2018-06-09T20:39:11.771Z,24.59
2018-06-09T20:41:41.232Z,24.58
2018-06-09T20:44:10.562Z,24.55
2018-06-09T20:46:39.885Z,24.53
2018-06-09T20:49:09.232Z,24.55
2018-06-09T20:51:38.795Z,24.55
2018-06-09T20:54:08.144Z,24.56
2018-06-09T20:56:37.625Z,24.55
2018-06-09T20:59:06.915Z,24.57
2018-06-09T21:01:36.349Z,24.53
2018-06-09T21:04:05.808Z,24.50
2018-06-09T21:06:35.142Z,24.51
2018-06-09T21:09:06.306Z,24.49
2018-06-09T21:11:35.836Z,24.44
2018-06-09T21:14:07.149Z,24.43
2018-06-09T21:16:36.489Z,24.42
2018-06-09T21:19:05.925Z,24.38
2018-06-09T21:21:35.260Z,24.34
2018-06-09T21:24:04.696Z,24.30
2018-06-09T21:26:39.312Z,24.33
2018-06-09T21:29:12.629Z,24.30
2018-06-09T21:31:45.283Z,24.23
2018-06-09T21:34:36.106Z,24.27
2018-06-09T21:37:14.993Z,24.19
2018-06-09T21:39:50.325Z,24.12
2018-06-09T21:42:26.067Z,24.11
2018-06-09T21:44:59.232Z,24.10
2018-06-09T21:47:29.794Z,24.09
2018-06-09T21:49:59.522Z,24.08
2018-06-09T21:52:29.948Z,24.07
2018-06-09T21:55:00.070Z,24.02
2018-06-09T21:57:29.656Z,24.02
2018-06-09T22:00:02.167Z,23.99
2018-06-09T22:02:38.340Z,23.96
2018-06-09T22:05:08.798Z,23.91
2018-06-09T22:07:38.132Z,23.95
2018-06-09T22:10:08.253Z,23.95
2018-06-09T22:12:40.370Z,23.51
2018-06-09T22:15:14.312Z,22.95
2018-06-09T22:17:44.660Z,22.24
2018-06-09T22:20:16.682Z,21.57
2018-06-09T22:22:47.350Z,21.18
2018-06-09T22:25:22.355Z,20.89
2018-06-09T22:27:52.338Z,20.62
2018-06-09T22:30:21.732Z,20.50
2018-06-09T22:32:51.024Z,20.39
2018-06-09T22:35:21.441Z,20.26
2018-06-09T22:37:52.329Z,20.06
2018-06-09T22:40:21.734Z,19.74
2018-06-09T22:42:51.023Z,19.57
2018-06-09T22:45:20.527Z,19.38
2018-06-09T22:47:49.868Z,19.33
2018-06-09T22:50:19.135Z,19.25
2018-06-09T22:52:48.453Z,19.40
2018-06-09T22:55:19.705Z,19.60
2018-06-09T22:57:54.221Z,19.63
2018-06-09T23:00:59.397Z,19.57
2018-06-09T23:03:28.677Z,19.52
2018-06-09T23:05:57.951Z,19.47
2018-06-09T23:08:29.519Z,19.36
2018-06-09T23:11:01.523Z,19.33
2018-06-09T23:13:30.903Z,19.36
2018-06-09T23:16:00.218Z,19.30
2018-06-09T23:18:29.534Z,19.25
2018-06-09T23:20:59.348Z,19.21
2018-06-09T23:23:28.651Z,19.17
2018-06-09T23:25:57.943Z,19.21
2018-06-09T23:28:27.343Z,19.22
2018-06-09T23:30:56.454Z,19.33
2018-06-09T23:33:25.458Z,19.29
2018-06-09T23:35:54.528Z,19.38
2018-06-09T23:38:23.884Z,19.35
2018-06-09T23:40:53.161Z,19.47
2018-06-09T23:43:22.461Z,19.40
2018-06-09T23:45:51.831Z,19.39
2018-06-09T23:48:21.071Z,19.37
2018-06-09T23:50:50.463Z,19.34
2018-06-09T23:53:19.879Z,19.33
2018-06-09T23:55:49.166Z,19.30
2018-06-09T23:58:18.506Z,19.34
